Time;durP1;ratioP1;P1;durP2;ratioP2;P2;SDS_P1;SDS_P2;PMS_P1;PMS_P2;Temp;Humidity;BMP_temperature;BMP_pressure;BME280_temperature;BME280_humidity;BME280_pressure;Samples;Min_cycle;Max_cycle;Signal;HPM_P1;HPM_P2
2022/07/02 00:01:24;;;;;;;5.90;5.08;;;;;;;17.63;100.00;100727.02;2770164;84;21555;-89
2022/07/02 00:05:28;;;;;;;9.40;5.53;;;;;;;17.70;100.00;100735.29;2804364;84;21063;-89
2022/07/02 00:09:30;;;;;;;7.92;5.97;;;;;;;17.68;100.00;100731.41;2797741;84;21035;-88
2022/07/02 00:13:32;;;;;;;6.35;4.40;;;;;;;17.60;100.00;100727.83;2808877;83;21527;-89
2022/07/02 00:17:33;;;;;;;8.90;5.65;;;;;;;17.54;100.00;100734.20;2801497;83;21330;-88
2022/07/02 00:21:39;;;;;;;11.12;6.90;;;;;;;17.41;100.00;100746.75;2810333;83;21023;-89
2022/07/02 00:25:42;;;;;;;12.23;5.60;;;;;;;17.47;100.00;100749.28;2814001;83;21019;-88
2022/07/02 00:29:51;;;;;;;17.02;6.85;;;;;;;17.42;100.00;100748.92;2814997;83;21039;-88
2022/07/02 00:33:53;;;;;;;14.38;6.87;;;;;;;17.45;100.00;100753.97;2806108;83;21042;-89
2022/07/02 00:37:56;;;;;;;21.07;6.58;;;;;;;17.51;100.00;100762.77;2812374;83;21531;-89
2022/07/02 00:41:58;;;;;;;8.05;6.12;;;;;;;17.48;100.00;100756.34;2813866;83;21724;-90
2022/07/02 00:46:00;;;;;;;12.93;6.62;;;;;;;17.49;100.00;100747.30;2760548;83;21043;-89
2022/07/02 00:50:06;;;;;;;15.83;7.00;;;;;;;17.53;100.00;100758.07;2814885;83;21039;-89
2022/07/02 00:54:07;;;;;;;9.65;6.78;;;;;;;17.64;100.00;100761.47;2812032;83;21039;-88
2022/07/02 00:58:09;;;;;;;11.20;6.22;;;;;;;17.70;99.88;100768.92;2813542;83;21023;-89
2022/07/02 01:02:10;;;;;;;9.20;7.40;;;;;;;17.68;99.40;100772.24;2813507;83;21027;-89
2022/07/02 01:06:12;;;;;;;13.22;7.67;;;;;;;17.69;99.27;100785.55;2804727;83;20992;-89
2022/07/02 01:10:17;;;;;;;9.50;6.58;;;;;;;17.76;99.11;100784.89;2806636;83;21039;-89
2022/07/02 01:14:19;;;;;;;9.88;6.75;;;;;;;17.83;98.67;100788.64;2814374;84;21055;-89
2022/07/02 01:18:20;;;;;;;10.45;7.85;;;;;;;17.83;98.40;100788.12;2790106;84;21039;-89
2022/07/02 01:22:25;;;;;;;10.80;7.22;;;;;;;17.85;98.47;100771.31;2799507;83;20988;-89
2022/07/02 01:26:27;;;;;;;17.27;8.95;;;;;;;17.63;99.17;100770.05;2787281;83;21034;-89
2022/07/02 01:30:28;;;;;;;11.97;8.03;;;;;;;17.67;99.24;100785.35;2817347;84;21027;-89
2022/07/02 01:34:43;;;;;;;11.03;7.92;;;;;;;17.60;99.80;100778.45;2818414;83;21015;-90
2022/07/02 01:38:45;;;;;;;13.70;9.33;;;;;;;17.65;99.24;100787.36;2816837;83;21602;-89
2022/07/02 01:42:47;;;;;;;9.25;8.30;;;;;;;17.76;99.38;100792.48;2815956;83;21004;-89
2022/07/02 01:46:48;;;;;;;11.97;9.78;;;;;;;17.83;98.62;100797.55;2812496;83;20996;-89
2022/07/02 01:50:49;;;;;;;13.18;8.65;;;;;;;17.84;98.54;100798.41;2817218;83;21598;-89
2022/07/02 01:54:50;;;;;;;14.55;8.85;;;;;;;17.90;97.84;100810.37;2816973;83;21008;-88
2022/07/02 01:58:52;;;;;;;12.10;10.50;;;;;;;17.86;97.52;100817.92;2818163;83;21012;-89
2022/07/02 02:02:53;;;;;;;15.05;9.63;;;;;;;17.83;97.20;100817.72;2817330;83;21141;-89
2022/07/02 02:06:54;;;;;;;13.25;9.83;;;;;;;17.87;97.80;100821.44;2813015;83;21051;-89
2022/07/02 02:10:55;;;;;;;13.55;10.38;;;;;;;17.79;97.77;100831.16;2818029;83;21031;-89
2022/07/02 02:14:56;;;;;;;14.25;8.78;;;;;;;17.80;98.34;100838.23;2808243;83;21045;-89
2022/07/02 02:18:59;;;;;;;13.50;9.43;;;;;;;17.84;98.44;100855.73;2801045;83;21015;-90
2022/07/02 02:23:04;;;;;;;15.60;9.63;;;;;;;17.88;98.32;100867.52;2817243;83;21606;-89
2022/07/02 02:27:04;;;;;;;10.32;8.83;;;;;;;17.85;97.95;100877.61;2810806;83;20991;-89
2022/07/02 02:31:05;;;;;;;12.98;9.73;;;;;;;17.82;97.16;100884.66;2818214;83;21038;-90
2022/07/02 02:35:07;;;;;;;12.98;9.88;;;;;;;17.80;96.69;100892.05;2800240;83;21023;-90
2022/07/02 02:39:09;;;;;;;15.65;11.40;;;;;;;17.82;96.52;100887.86;2812416;83;21054;-90
2022/07/02 02:43:10;;;;;;;13.35;9.83;;;;;;;17.77;96.18;100892.37;2817605;84;21039;-91
2022/07/02 02:47:11;;;;;;;18.17;10.40;;;;;;;17.76;95.62;100888.48;2816982;83;21095;-88
2022/07/02 02:51:14;;;;;;;20.37;11.30;;;;;;;17.68;95.39;100907.61;2813904;83;21023;-88
2022/07/02 02:55:16;;;;;;;20.20;12.37;;;;;;;17.68;94.97;100904.92;2803364;83;21039;-89
2022/07/02 02:59:17;;;;;;;16.60;10.15;;;;;;;17.65;95.32;100911.97;2819120;83;21044;-89
2022/07/02 03:03:18;;;;;;;20.45;11.80;;;;;;;17.65;95.09;100915.14;2816506;83;21583;-90
2022/07/02 03:07:20;;;;;;;16.17;11.25;;;;;;;17.55;95.23;100913.89;2815861;83;21035;-89
2022/07/02 03:11:21;;;;;;;14.75;11.65;;;;;;;17.56;95.63;100920.47;2818140;84;21054;-89
2022/07/02 03:15:22;;;;;;;17.12;12.00;;;;;;;17.54;95.45;100933.23;2813992;83;21035;-90
2022/07/02 03:19:24;;;;;;;23.90;12.88;;;;;;;17.56;95.55;100931.23;2815495;83;21106;-90
2022/07/02 03:23:26;;;;;;;17.62;10.55;;;;;;;17.56;95.44;100943.83;2764245;84;21089;-89
2022/07/02 03:27:27;;;;;;;15.63;11.70;;;;;;;17.54;95.33;100944.48;2764065;84;21118;-90
2022/07/02 03:31:28;;;;;;;14.33;11.30;;;;;;;17.50;95.27;100935.91;2722527;86;21046;-89
2022/07/02 03:35:29;;;;;;;14.93;10.80;;;;;;;17.45;95.12;100936.84;2745676;84;21077;-90
2022/07/02 03:39:31;;;;;;;17.62;12.65;;;;;;;17.43;95.00;100934.81;2721485;85;21533;-90
2022/07/02 03:43:33;;;;;;;14.80;10.18;;;;;;;17.41;95.37;100943.53;2742813;85;21090;-89
2022/07/02 03:47:35;;;;;;;18.37;12.50;;;;;;;17.40;95.23;100948.57;2723135;86;21450;-87
2022/07/02 03:51:36;;;;;;;17.85;12.28;;;;;;;17.35;95.22;100949.03;2733672;84;21131;-89
2022/07/02 03:55:38;;;;;;;18.45;12.28;;;;;;;17.28;95.23;100946.11;2698523;86;21661;-89
2022/07/02 03:59:39;;;;;;;17.45;11.95;;;;;;;17.30;95.00;100947.83;2814338;83;21077;-89
2022/07/02 04:03:40;;;;;;;14.90;13.20;;;;;;;17.27;95.38;100953.00;2812487;84;21039;-89
2022/07/02 04:07:42;;;;;;;14.23;11.15;;;;;;;17.14;95.60;100952.04;2813766;83;21031;-89
2022/07/02 04:11:43;;;;;;;13.60;9.55;;;;;;;17.04;95.96;100958.83;2809657;83;21023;-89
2022/07/02 04:15:44;;;;;;;16.35;11.12;;;;;;;16.96;96.18;100962.23;2799474;83;21025;-89
2022/07/02 04:19:46;;;;;;;14.25;10.68;;;;;;;16.85;96.65;100958.41;2818025;83;21043;-90
2022/07/02 04:23:47;;;;;;;18.52;11.65;;;;;;;16.78;96.86;100968.07;2809141;83;21019;-88
2022/07/02 04:27:48;;;;;;;17.65;12.33;;;;;;;16.88;96.87;100974.22;2815412;83;21577;-90
2022/07/02 04:31:49;;;;;;;22.13;12.68;;;;;;;16.88;97.25;100970.70;2813309;84;21031;-90
2022/07/02 04:35:50;;;;;;;17.92;11.97;;;;;;;16.91;96.88;100973.95;2817412;83;20995;-89
2022/07/02 04:39:52;;;;;;;14.90;10.98;;;;;;;16.92;95.87;100983.70;2818906;83;21090;-90
2022/07/02 04:43:53;;;;;;;18.15;12.47;;;;;;;16.85;95.84;100978.07;2819142;84;21030;-90
2022/07/02 04:47:54;;;;;;;16.37;12.45;;;;;;;16.78;96.63;100982.84;2817052;83;21087;-89
2022/07/02 04:51:55;;;;;;;17.92;12.63;;;;;;;16.90;96.42;100992.41;2818574;84;21055;-90
2022/07/02 04:55:57;;;;;;;15.93;13.15;;;;;;;17.67;95.81;100992.50;2811246;83;21039;-89
2022/07/02 04:59:58;;;;;;;12.60;11.18;;;;;;;18.42;92.53;100999.28;2768990;84;21125;-89
2022/07/02 05:03:59;;;;;;;16.30;12.20;;;;;;;19.14;86.96;101002.11;2819143;83;21086;-89
2022/07/02 05:08:01;;;;;;;14.93;11.80;;;;;;;19.75;83.46;101011.29;2818031;83;21030;-90
2022/07/02 05:12:03;;;;;;;12.45;10.23;;;;;;;19.76;82.05;101010.27;2814776;83;21031;-89
2022/07/02 05:16:08;;;;;;;18.85;11.57;;;;;;;19.47;81.59;101017.02;2818994;83;21074;-89
2022/07/02 05:20:09;;;;;;;15.03;12.50;;;;;;;18.98;83.33;101020.41;2800586;83;21050;-89
2022/07/02 05:24:11;;;;;;;13.53;11.35;;;;;;;18.64;85.35;101022.63;2773041;84;21033;-89
2022/07/02 05:28:12;;;;;;;12.58;11.25;;;;;;;18.64;86.38;101028.02;2816669;83;20995;-89
2022/07/02 05:32:13;;;;;;;11.95;10.05;;;;;;;19.30;85.45;101034.18;2774584;83;20987;-89
2022/07/02 05:36:15;;;;;;;16.60;9.78;;;;;;;19.81;81.85;101028.15;2794905;84;21058;-89
2022/07/02 05:40:16;;;;;;;11.68;9.28;;;;;;;20.31;79.38;101025.44;2816816;84;21566;-88
2022/07/02 05:44:17;;;;;;;10.93;9.85;;;;;;;20.26;78.16;101035.92;2816640;83;21019;-89
2022/07/02 05:48:18;;;;;;;13.58;11.22;;;;;;;20.15;78.91;101040.32;2814596;83;21070;-88
2022/07/02 05:52:20;;;;;;;11.55;8.90;;;;;;;20.01;79.73;101039.98;2736316;84;21066;-89
2022/07/02 05:56:21;;;;;;;13.38;10.00;;;;;;;20.17;77.99;101055.84;2818707;83;21027;-89
2022/07/02 06:00:22;;;;;;;11.22;9.30;;;;;;;20.37;78.81;101056.34;2816702;84;21027;-89
2022/07/02 06:04:23;;;;;;;10.78;9.68;;;;;;;20.73;77.56;101047.77;2819284;83;21011;-88
2022/07/02 06:08:25;;;;;;;18.73;10.70;;;;;;;21.00;76.57;101059.70;2819996;83;21042;-89
2022/07/02 06:12:26;;;;;;;8.05;7.25;;;;;;;21.17;75.94;101051.84;2772058;84;21045;-91
2022/07/02 06:16:29;;;;;;;9.80;8.00;;;;;;;21.47;74.23;101050.66;2819276;83;21098;-89
2022/07/02 06:20:30;;;;;;;9.88;7.22;;;;;;;21.73;71.36;101054.89;2791085;82;21062;-88
2022/07/02 06:24:32;;;;;;;8.85;5.97;;;;;;;21.95;70.97;101067.24;2793945;83;21554;-88
2022/07/02 06:28:33;;;;;;;6.95;5.37;;;;;;;21.71;71.80;101078.61;2784927;83;21063;-88
2022/07/02 06:32:36;;;;;;;12.95;7.67;;;;;;;21.51;72.10;101076.34;2814255;83;20995;-89
2022/07/02 06:36:37;;;;;;;6.08;5.53;;;;;;;21.52;71.57;101081.25;2812725;83;21075;-87
2022/07/02 06:40:39;;;;;;;6.40;5.80;;;;;;;21.45;70.92;101077.06;2801468;84;21066;-87
2022/07/02 06:44:40;;;;;;;8.35;6.08;;;;;;;21.89;70.15;101084.23;2809775;83;21063;-88
2022/07/02 06:48:41;;;;;;;6.37;5.17;;;;;;;22.13;68.45;101077.77;2806146;83;21046;-90
2022/07/02 06:52:45;;;;;;;10.72;5.33;;;;;;;22.06;67.43;101080.86;2788116;83;38362;-87
2022/07/02 06:56:46;;;;;;;6.45;5.78;;;;;;;21.85;69.40;101078.86;2808450;83;21075;-89
2022/07/02 07:00:48;;;;;;;6.05;5.10;;;;;;;21.85;67.85;101085.63;2816215;83;21035;-89
2022/07/02 07:04:49;;;;;;;5.83;4.42;;;;;;;22.26;66.37;101078.50;2790437;83;21038;-87
2022/07/02 07:08:52;;;;;;;6.42;4.30;;;;;;;22.74;65.15;101073.27;2801921;83;21086;-87
2022/07/02 07:12:53;;;;;;;7.65;6.33;;;;;;;23.25;64.68;101080.13;2802718;83;21077;-87
2022/07/02 07:16:55;;;;;;;7.90;6.37;;;;;;;23.70;63.28;101079.13;2813693;83;21007;-87
2022/07/02 07:20:56;;;;;;;7.40;4.22;;;;;;;23.92;62.35;101080.48;2814112;83;20988;-87
2022/07/02 07:24:57;;;;;;;4.42;3.55;;;;;;;23.51;60.58;101080.09;2749293;83;21007;-87
2022/07/02 07:29:00;;;;;;;5.83;4.50;;;;;;;23.44;61.60;101085.13;2792154;83;21063;-87
2022/07/02 07:33:01;;;;;;;6.83;3.47;;;;;;;23.49;60.22;101090.30;2791330;83;21058;-86
2022/07/02 07:37:03;;;;;;;6.42;3.10;;;;;;;23.30;61.75;101101.78;2814494;83;21031;-87
2022/07/02 07:41:04;;;;;;;6.37;4.62;;;;;;;23.05;61.99;101092.05;2796567;84;21055;-87
2022/07/02 07:45:07;;;;;;;4.28;3.87;;;;;;;23.06;62.48;101092.91;2813788;83;21040;-87
2022/07/02 07:49:08;;;;;;;6.72;4.42;;;;;;;23.19;63.42;101097.65;2813528;83;21008;-86
2022/07/02 07:53:09;;;;;;;7.37;3.92;;;;;;;22.99;62.32;101105.02;2809486;84;21051;-87
2022/07/02 07:57:10;;;;;;;3.30;2.67;;;;;;;22.46;63.19;101117.27;2791468;83;21066;-86
2022/07/02 08:01:12;;;;;;;3.60;3.30;;;;;;;22.93;64.61;101118.81;2815258;83;21031;-87
2022/07/02 08:05:13;;;;;;;5.05;3.40;;;;;;;22.89;62.50;101113.44;2815165;83;21828;-87
2022/07/02 08:09:14;;;;;;;4.17;3.37;;;;;;;22.96;62.58;101113.00;2814189;84;20984;-86
2022/07/02 08:13:16;;;;;;;4.03;3.35;;;;;;;22.80;62.18;101114.58;2815934;83;21066;-87
2022/07/02 08:17:18;;;;;;;2.45;2.25;;;;;;;22.81;61.94;101118.45;2816173;83;21007;-87
2022/07/02 08:21:19;;;;;;;5.08;3.25;;;;;;;23.42;61.72;101123.34;2816313;83;21406;-87
2022/07/02 08:25:20;;;;;;;8.58;4.05;;;;;;;23.98;60.73;101111.47;2813394;83;20992;-87
2022/07/02 08:29:21;;;;;;;5.30;2.60;;;;;;;23.60;61.05;101111.21;2814968;83;21015;-87
2022/07/02 08:33:22;;;;;;;3.55;3.10;;;;;;;23.84;62.36;101111.87;2815463;83;21047;-87
2022/07/02 08:37:24;;;;;;;2.77;2.47;;;;;;;24.29;58.76;101124.73;2814245;83;20992;-87
2022/07/02 08:41:25;;;;;;;4.65;3.10;;;;;;;24.57;55.95;101118.47;2811093;83;21028;-87
2022/07/02 08:45:32;;;;;;;4.62;2.95;;;;;;;24.56;57.15;101124.92;2818011;83;21615;-87
2022/07/02 08:49:35;;;;;;;4.10;2.80;;;;;;;24.00;57.74;101116.19;2812804;83;21129;-87
2022/07/02 08:53:37;;;;;;;3.20;2.15;;;;;;;23.58;58.19;101120.89;2815131;84;20987;-87
2022/07/02 08:57:39;;;;;;;5.08;3.35;;;;;;;24.06;58.49;101117.64;2810935;83;21079;-87
2022/07/02 09:01:41;;;;;;;2.85;2.37;;;;;;;24.42;56.48;101117.73;2814889;83;21027;-86
2022/07/02 09:05:42;;;;;;;2.45;2.25;;;;;;;24.54;55.95;101113.40;2810489;83;20988;-86
2022/07/02 09:09:45;;;;;;;3.08;2.52;;;;;;;24.25;55.59;101118.02;2792650;83;21071;-87
2022/07/02 09:13:46;;;;;;;6.47;3.15;;;;;;;24.14;56.81;101116.67;2813883;83;21441;-87
2022/07/02 09:17:48;;;;;;;4.62;3.12;;;;;;;24.53;58.32;101104.92;2811339;83;21027;-87
2022/07/02 09:21:51;;;;;;;3.95;2.62;;;;;;;24.62;56.33;101113.27;2807853;83;21063;-87
2022/07/02 09:25:53;;;;;;;4.47;2.33;;;;;;;24.36;55.58;101114.73;2806498;83;21019;-87
2022/07/02 09:29:55;;;;;;;2.40;1.82;;;;;;;24.33;56.53;101109.70;2808744;84;21083;-87
2022/07/02 09:33:57;;;;;;;10.72;2.90;;;;;;;24.67;55.82;101104.52;2807343;84;21031;-87
2022/07/02 09:38:03;;;;;;;2.70;1.32;;;;;;;24.90;54.94;101114.30;2808601;84;21570;-87
2022/07/02 09:42:05;;;;;;;3.52;2.30;;;;;;;24.72;53.04;101099.81;2808301;84;21075;-87
2022/07/02 09:46:16;;;;;;;5.17;2.35;;;;;;;24.73;54.10;101102.85;2809671;83;21023;-87
2022/07/02 09:50:20;;;;;;;6.72;2.05;;;;;;;24.88;52.87;101104.96;2808147;84;21065;-87
2022/07/02 09:54:24;;;;;;;3.65;2.10;;;;;;;25.20;52.83;101101.25;2806434;83;21059;-87
2022/07/02 09:58:28;;;;;;;2.72;2.02;;;;;;;25.69;54.49;101088.94;2798823;83;21542;-87
2022/07/02 10:02:30;;;;;;;3.42;1.82;;;;;;;25.55;53.40;101092.67;2808411;84;21067;-87
2022/07/02 10:06:31;;;;;;;2.85;2.00;;;;;;;24.95;52.11;101100.38;2794733;84;21023;-87
2022/07/02 10:10:36;;;;;;;5.22;2.37;;;;;;;24.78;52.96;101095.81;2806014;84;21118;-86
2022/07/02 10:14:39;;;;;;;2.67;2.22;;;;;;;25.07;52.28;101084.85;2809841;84;21571;-87
2022/07/02 10:18:46;;;;;;;3.25;1.62;;;;;;;25.29;52.54;101085.58;2809675;84;21004;-87
2022/07/02 10:22:45;;;;;;;;;;;;;;;25.66;51.71;101077.09;2767610;84;21008;-87
2022/07/02 10:26:46;;;;;;;4.62;1.65;;;;;;;25.68;50.45;101079.09;2816905;83;20124;-87
2022/07/02 10:30:48;;;;;;;4.58;2.45;;;;;;;25.44;51.34;101074.51;2814406;83;21044;-87
2022/07/02 10:35:11;;;;;;;2.58;2.22;;;;;;;25.60;51.18;101074.66;2810061;83;21047;-87
2022/07/02 10:39:16;;;;;;;1.42;1.32;;;;;;;25.74;50.00;101076.06;2809335;84;21543;-87
2022/07/02 10:43:18;;;;;;;3.35;1.65;;;;;;;25.65;49.87;101068.61;2816514;83;21012;-87
2022/07/02 10:47:25;;;;;;;4.72;2.05;;;;;;;25.61;49.38;101064.63;2810925;84;20999;-87
2022/07/02 10:51:31;;;;;;;3.47;2.22;;;;;;;25.75;49.91;101069.05;2816470;83;21035;-86
2022/07/02 10:55:33;;;;;;;3.70;1.57;;;;;;;25.93;51.15;101058.88;2812985;83;21193;-87
2022/07/02 10:59:39;;;;;;;3.05;1.17;;;;;;;26.09;51.30;101052.16;2812194;83;20988;-86
2022/07/02 11:03:51;;;;;;;1.52;1.42;;;;;;;26.12;49.44;101045.46;2798177;84;21063;-87
2022/07/02 11:07:53;;;;;;;3.03;1.77;;;;;;;26.37;51.12;101042.95;2812306;83;21023;-87
2022/07/02 11:12:00;;;;;;;4.00;1.85;;;;;;;26.73;51.24;101042.64;2816250;84;21012;-86
2022/07/02 11:16:01;;;;;;;2.05;1.47;;;;;;;26.62;47.74;101038.66;2816591;83;21027;-88
2022/07/02 11:20:04;;;;;;;2.05;1.57;;;;;;;26.85;46.59;101034.63;2810934;83;21067;-87
2022/07/02 11:24:06;;;;;;;3.52;1.77;;;;;;;27.02;47.67;101032.25;2810275;84;21035;-87
2022/07/02 11:28:07;;;;;;;1.25;1.12;;;;;;;27.19;46.09;101034.79;2774712;84;20965;-87
2022/07/02 11:32:09;;;;;;;2.37;1.67;;;;;;;27.26;45.36;101028.45;2807131;84;21496;-87
2022/07/02 11:36:14;;;;;;;2.92;1.47;;;;;;;27.07;45.57;101029.19;2810257;84;21043;-86
2022/07/02 11:40:21;;;;;;;1.75;1.42;;;;;;;27.04;46.15;101032.88;2808020;84;21016;-87
2022/07/02 11:44:30;;;;;;;3.50;1.65;;;;;;;27.22;45.72;101034.34;2794709;83;21416;-86
2022/07/02 11:48:31;;;;;;;2.70;1.55;;;;;;;27.26;45.07;101034.76;2810821;84;21027;-87
2022/07/02 11:52:33;;;;;;;3.35;1.42;;;;;;;27.17;45.86;101028.72;2765753;83;21046;-87
2022/07/02 11:56:40;;;;;;;5.10;1.72;;;;;;;27.17;44.77;101031.45;2808109;83;21027;-87
2022/07/02 12:00:42;;;;;;;1.40;1.20;;;;;;;27.00;45.92;101031.64;2808548;83;20972;-87
2022/07/02 12:04:43;;;;;;;2.08;1.30;;;;;;;26.90;45.44;101030.20;2806347;83;21094;-86
2022/07/02 12:08:44;;;;;;;2.83;1.42;;;;;;;26.97;45.34;101033.44;2794383;84;21031;-87
2022/07/02 12:12:45;;;;;;;3.30;1.05;;;;;;;26.87;45.87;101026.54;2800301;84;20988;-87
2022/07/02 12:16:47;;;;;;;1.32;1.22;;;;;;;26.75;44.92;101014.61;2808872;83;20979;-86
2022/07/02 12:20:48;;;;;;;1.60;1.22;;;;;;;26.75;45.00;101014.07;2798111;82;21039;-87
2022/07/02 12:24:51;;;;;;;1.77;1.27;;;;;;;26.96;47.09;101009.93;2816673;83;21062;-87
2022/07/02 12:33:34;;;;;;;2.67;1.30;;;;;;;27.63;43.24;101008.16;2817676;83;20992;-87
2022/07/02 12:37:38;;;;;;;1.75;0.62;;;;;;;27.91;44.17;100998.69;2815667;83;21141;-87
2022/07/02 12:41:40;;;;;;;2.92;1.27;;;;;;;28.28;41.91;100994.64;2817104;83;21036;-87
2022/07/02 12:45:42;;;;;;;1.60;1.22;;;;;;;28.33;42.71;100996.19;2816902;83;21325;-86
2022/07/02 12:49:57;;;;;;;5.90;2.05;;;;;;;28.35;42.48;100991.31;2815120;83;21035;-87
2022/07/02 12:53:59;;;;;;;2.80;1.47;;;;;;;28.65;44.14;101001.47;2815083;83;21067;-87
2022/07/02 12:58:05;;;;;;;1.45;1.35;;;;;;;28.88;42.68;100996.39;2801077;84;21023;-87
2022/07/02 13:02:09;;;;;;;2.60;0.93;;;;;;;29.12;42.76;100989.11;2814975;84;21213;-87
2022/07/02 13:06:10;;;;;;;5.30;1.20;;;;;;;29.01;41.64;100979.79;2815677;83;21578;-87
2022/07/02 13:10:11;;;;;;;1.40;1.27;;;;;;;28.78;41.72;100994.17;2818610;83;20992;-87
2022/07/02 13:14:12;;;;;;;1.80;1.05;;;;;;;28.42;42.96;100990.39;2811443;83;21078;-87
2022/07/02 13:18:14;;;;;;;1.85;1.30;;;;;;;28.12;42.29;100991.12;2816626;83;21338;-87
2022/07/02 13:22:16;;;;;;;1.42;1.05;;;;;;;27.82;42.41;100994.55;2820095;83;21550;-86
2022/07/02 13:26:17;;;;;;;1.80;1.17;;;;;;;27.57;43.34;100987.20;2819856;84;21044;-87
2022/07/02 13:30:20;;;;;;;1.32;1.22;;;;;;;27.50;43.07;100981.75;2820736;84;21046;-87
2022/07/02 13:34:21;;;;;;;1.37;1.27;;;;;;;27.57;42.74;100981.73;2820896;84;21003;-87
2022/07/02 13:38:22;;;;;;;2.02;1.40;;;;;;;27.85;42.29;100970.34;2815603;83;21047;-87
2022/07/02 13:42:24;;;;;;;3.08;1.32;;;;;;;28.18;40.94;100973.83;2819367;83;21011;-87
2022/07/02 13:46:25;;;;;;;1.20;1.10;;;;;;;28.44;41.64;100971.33;2783777;84;21031;-87
2022/07/02 13:50:26;;;;;;;2.05;1.15;;;;;;;28.43;40.52;100971.55;2815297;84;21011;-87
2022/07/02 13:54:27;;;;;;;3.02;1.32;;;;;;;28.48;40.91;100967.59;2821303;83;21047;-87
2022/07/02 13:58:29;;;;;;;2.70;1.10;;;;;;;28.47;40.32;100967.28;2819620;83;21151;-86
2022/07/02 14:02:30;;;;;;;1.62;1.07;;;;;;;28.38;40.65;100970.86;2819320;83;21019;-87
2022/07/02 14:06:32;;;;;;;1.40;1.20;;;;;;;28.22;39.51;100964.11;2819692;83;21027;-87
2022/07/02 14:10:33;;;;;;;2.40;1.02;;;;;;;28.13;39.92;100957.25;2766503;84;20996;-86
2022/07/02 14:14:36;;;;;;;1.98;1.25;;;;;;;28.00;40.62;100961.78;2819713;83;21066;-87
2022/07/02 14:18:38;;;;;;;1.35;1.15;;;;;;;27.74;41.36;100960.14;2821466;83;21050;-87
2022/07/02 14:22:39;;;;;;;3.10;1.57;;;;;;;27.55;41.26;100966.91;2819951;83;21031;-87
2022/07/02 14:26:40;;;;;;;1.65;1.35;;;;;;;27.45;42.28;100957.00;2820327;84;21114;-87
2022/07/02 14:30:41;;;;;;;4.85;1.22;;;;;;;27.27;42.34;100963.21;2822787;83;21004;-87
2022/07/02 14:34:43;;;;;;;5.08;1.35;;;;;;;27.16;43.12;100956.05;2817049;83;21054;-86
2022/07/02 14:38:44;;;;;;;4.87;1.30;;;;;;;27.02;42.91;100951.21;2821982;83;21008;-87
2022/07/02 14:42:45;;;;;;;1.70;1.15;;;;;;;27.01;43.24;100950.05;2821957;84;21054;-87
2022/07/02 14:46:46;;;;;;;4.05;1.32;;;;;;;27.09;43.54;100941.08;2818285;83;21059;-87
2022/07/02 14:50:48;;;;;;;2.87;1.85;;;;;;;27.12;42.83;100943.91;2822981;83;21023;-87
2022/07/02 14:54:49;;;;;;;5.35;1.90;;;;;;;27.17;43.44;100933.15;2821736;84;21023;-87
2022/07/02 14:58:51;;;;;;;2.55;1.12;;;;;;;27.17;42.93;100938.61;2819972;83;21054;-87
2022/07/02 15:02:52;;;;;;;1.52;1.42;;;;;;;27.15;42.45;100936.62;2819917;83;21496;-87
2022/07/02 15:06:53;;;;;;;2.02;1.10;;;;;;;27.18;42.23;100929.36;2803416;84;21051;-86
2022/07/02 15:10:55;;;;;;;1.80;1.25;;;;;;;27.19;42.48;100926.94;2820525;83;21043;-87
2022/07/02 15:19:13;;;;;;;1.27;1.10;;;;;;;27.17;41.70;100923.59;2768060;84;21065;-87
2022/07/02 15:23:19;;;;;;;2.65;1.32;;;;;;;27.21;42.05;100922.09;2790191;84;21043;-87
2022/07/02 15:27:21;;;;;;;1.90;1.20;;;;;;;27.36;41.80;100920.93;2785939;84;21034;-87
2022/07/02 15:31:22;;;;;;;2.02;1.10;;;;;;;27.39;42.51;100916.38;2786427;84;21004;-87
2022/07/02 15:35:25;;;;;;;2.05;1.40;;;;;;;27.28;43.17;100912.99;2754174;85;21069;-87
2022/07/02 15:39:26;;;;;;;2.90;1.02;;;;;;;27.00;44.98;100920.54;2760275;85;21097;-87
2022/07/02 15:43:27;;;;;;;2.25;0.75;;;;;;;26.75;45.23;100904.92;2784119;84;21027;-87
2022/07/02 15:47:30;;;;;;;1.87;1.00;;;;;;;26.50;46.37;100912.51;2787996;84;21038;-87
2022/07/02 15:51:46;;;;;;;3.87;1.37;;;;;;;26.40;45.63;100903.94;2764510;85;21050;-87
2022/07/02 15:55:58;;;;;;;1.45;1.35;;;;;;;26.42;45.22;100899.64;2789840;84;21079;-88
2022/07/02 16:00:01;;;;;;;2.42;1.30;;;;;;;26.56;46.49;100890.35;2800227;83;21051;-87
2022/07/02 16:04:04;;;;;;;3.15;1.87;;;;;;;26.74;47.15;100892.88;2810461;84;21020;-87
2022/07/02 16:08:09;;;;;;;2.47;1.55;;;;;;;26.87;46.08;100889.27;2802276;83;21023;-87
2022/07/02 16:12:10;;;;;;;2.08;1.45;;;;;;;26.88;46.30;100890.94;2807987;84;21042;-87
2022/07/02 16:16:14;;;;;;;1.55;1.20;;;;;;;26.91;44.28;100888.58;2807512;84;21031;-87
2022/07/02 16:20:16;;;;;;;1.47;1.37;;;;;;;27.05;43.83;100890.71;2806287;83;21032;-87
2022/07/02 16:24:19;;;;;;;1.95;1.72;;;;;;;27.29;43.22;100887.36;2796579;84;21531;-87
2022/07/02 16:28:21;;;;;;;2.55;1.52;;;;;;;27.41;43.94;100882.00;2821161;84;21531;-86
2022/07/02 16:32:57;;;;;;;1.65;1.20;;;;;;;27.39;43.48;100884.97;2820422;83;21003;-86
2022/07/02 16:37:02;;;;;;;3.05;1.45;;;;;;;27.14;44.09;100881.72;2804206;84;21000;-86
2022/07/02 16:41:12;;;;;;;1.47;1.10;;;;;;;27.03;45.49;100879.17;2814213;83;21031;-87
2022/07/02 16:45:14;;;;;;;1.30;1.20;;;;;;;27.02;45.78;100873.41;2781694;84;20965;-86
2022/07/02 16:49:17;;;;;;;6.40;1.92;;;;;;;27.05;44.59;100872.11;2821984;84;21027;-87
2022/07/02 16:53:20;;;;;;;1.50;1.40;;;;;;;27.03;45.38;100866.05;2817605;83;21065;-87
2022/07/02 16:57:22;;;;;;;1.62;1.52;;;;;;;26.89;44.73;100855.22;2821738;83;21035;-87
2022/07/02 17:01:25;;;;;;;6.22;1.72;;;;;;;26.70;45.23;100852.91;2820757;83;21110;-87
2022/07/02 17:05:27;;;;;;;1.37;1.27;;;;;;;26.51;44.77;100849.23;2819832;83;21018;-87
2022/07/02 17:09:28;;;;;;;2.08;1.35;;;;;;;26.36;45.60;100847.66;2819052;84;21004;-87
2022/07/02 17:13:29;;;;;;;1.12;1.02;;;;;;;26.23;45.40;100839.53;2818488;83;21506;-87
2022/07/02 17:17:30;;;;;;;2.15;1.50;;;;;;;26.13;46.03;100837.74;2818366;84;20980;-87
2022/07/02 17:21:33;;;;;;;3.33;1.40;;;;;;;26.03;46.37;100837.69;2820864;83;21051;-86
2022/07/02 17:25:35;;;;;;;1.72;1.22;;;;;;;25.95;46.21;100831.13;2785656;84;21042;-87
2022/07/02 17:29:36;;;;;;;1.92;1.55;;;;;;;25.88;46.42;100826.20;2819163;83;21593;-87
2022/07/02 17:33:38;;;;;;;1.60;1.50;;;;;;;25.79;46.09;100816.92;2820785;84;21027;-87
2022/07/02 17:37:39;;;;;;;2.37;1.92;;;;;;;25.74;46.75;100808.53;2811729;83;21027;-87
2022/07/02 17:41:41;;;;;;;2.10;1.42;;;;;;;25.69;46.99;100798.81;2820904;83;21969;-87
2022/07/02 17:45:46;;;;;;;3.02;1.60;;;;;;;25.65;46.74;100809.32;2819090;84;21011;-86
2022/07/02 17:49:46;;;;;;;2.52;1.07;;;;;;;25.61;46.66;100799.87;2818601;83;21051;-87
2022/07/02 17:53:47;;;;;;;1.05;1.05;;;;;;;25.58;47.75;100799.48;2818712;83;21055;-86
2022/07/02 17:57:49;;;;;;;5.03;1.70;;;;;;;25.48;48.21;100789.03;2821239;83;21542;-87
2022/07/02 18:01:50;;;;;;;1.50;1.12;;;;;;;25.39;48.77;100791.11;2755721;83;21078;-87
2022/07/02 18:05:51;;;;;;;4.90;2.00;;;;;;;25.29;49.05;100787.98;2815008;84;21012;-87
2022/07/02 18:09:52;;;;;;;1.37;0.98;;;;;;;25.20;49.81;100795.02;2820821;83;21388;-87
2022/07/02 18:13:54;;;;;;;2.02;1.57;;;;;;;25.12;49.60;100787.59;2819411;83;21011;-86
2022/07/02 18:17:55;;;;;;;1.95;1.72;;;;;;;25.03;50.26;100792.41;2820877;83;21039;-86
2022/07/02 18:21:56;;;;;;;2.72;1.65;;;;;;;24.93;50.63;100795.00;2817133;83;21059;-87
2022/07/02 18:25:57;;;;;;;2.02;1.37;;;;;;;24.85;50.43;100791.14;2803906;83;21055;-86
2022/07/02 18:30:00;;;;;;;1.98;1.80;;;;;;;24.76;50.97;100798.67;2796640;83;21115;-87
2022/07/02 18:34:02;;;;;;;3.10;2.75;;;;;;;24.67;51.76;100800.72;2809557;84;21016;-86
2022/07/02 18:38:05;;;;;;;2.75;2.45;;;;;;;24.59;52.30;100809.59;2796277;84;21090;-87
2022/07/02 18:42:06;;;;;;;1.77;1.65;;;;;;;24.46;52.43;100803.61;2809862;84;21087;-87
2022/07/02 18:46:08;;;;;;;2.72;1.90;;;;;;;24.36;52.91;100804.83;2790646;84;21035;-86
2022/07/02 18:50:10;;;;;;;2.30;1.22;;;;;;;24.21;53.74;100805.53;2808304;84;20987;-86